createdAt,value
2018-12-07T00:00:10.302Z,1003.65
2018-12-07T00:01:10.291Z,1003.66
2018-12-07T00:02:10.300Z,1003.63
2018-12-07T00:03:10.273Z,1003.65
2018-12-07T00:04:10.277Z,1003.59
2018-12-07T00:05:10.262Z,1003.65
2018-12-07T00:06:10.233Z,1003.64
2018-12-07T00:07:10.221Z,1003.59
2018-12-07T00:08:10.260Z,1003.61
2018-12-07T00:09:10.199Z,1003.59
2018-12-07T00:10:10.188Z,1003.59
2018-12-07T00:11:10.176Z,1003.57
2018-12-07T00:12:10.166Z,1003.55
2018-12-07T00:13:10.153Z,1003.55
2018-12-07T00:14:10.168Z,1003.53
2018-12-07T00:15:10.158Z,1003.50
2018-12-07T00:16:10.135Z,1003.50
2018-12-07T00:17:10.115Z,1003.50
2018-12-07T00:18:10.097Z,1003.48
2018-12-07T00:19:10.102Z,1003.52
2018-12-07T00:20:10.076Z,1003.50
2018-12-07T00:21:10.068Z,1003.51
2018-12-07T00:22:10.065Z,1003.52
2018-12-07T00:23:10.059Z,1003.52
2018-12-07T00:24:10.044Z,1003.54
2018-12-07T00:25:10.017Z,1003.53
2018-12-07T00:26:10.031Z,1003.52
2018-12-07T00:27:09.993Z,1003.47
2018-12-07T00:28:09.991Z,1003.46
2018-12-07T00:29:10.011Z,1003.45
2018-12-07T00:30:09.963Z,1003.45
2018-12-07T00:31:09.974Z,1003.40
2018-12-07T00:32:09.943Z,1003.38
2018-12-07T00:33:09.931Z,1003.37
2018-12-07T00:34:09.918Z,1003.32
2018-12-07T00:35:09.922Z,1003.31
2018-12-07T00:36:09.893Z,1003.25
2018-12-07T00:37:09.899Z,1003.20
2018-12-07T00:38:09.872Z,1003.16
2018-12-07T00:39:09.886Z,1003.15
2018-12-07T00:40:09.850Z,1003.11
2018-12-07T00:41:09.840Z,1003.11
2018-12-07T00:42:09.827Z,1003.14
2018-12-07T00:43:09.821Z,1003.13
2018-12-07T00:44:09.808Z,1003.12
2018-12-07T00:45:09.809Z,1003.15
2018-12-07T00:46:09.785Z,1003.18
2018-12-07T00:47:09.813Z,1003.20
2018-12-07T00:48:09.760Z,1003.21
2018-12-07T00:49:09.749Z,1003.18
2018-12-07T00:50:09.782Z,1003.26
2018-12-07T00:51:09.728Z,1003.27
2018-12-07T00:52:09.751Z,1003.22
2018-12-07T00:53:09.704Z,1003.18
2018-12-07T00:54:09.691Z,1003.22
2018-12-07T00:55:09.695Z,1003.13
2018-12-07T00:56:09.687Z,1003.10
2018-12-07T00:57:09.688Z,1003.07
2018-12-07T00:58:09.684Z,1003.03
2018-12-07T00:59:09.638Z,1003.05
2018-12-07T01:00:09.626Z,1003.06
2018-12-07T01:01:09.614Z,1002.99
2018-12-07T01:02:09.602Z,1003.03
2018-12-07T01:03:09.592Z,1002.98
2018-12-07T01:04:09.640Z,1003.05
2018-12-07T01:05:09.568Z,1002.98
2018-12-07T01:06:09.560Z,1003.02
2018-12-07T01:07:09.548Z,1003.08
2018-12-07T01:08:09.538Z,1003.02
2018-12-07T01:09:09.539Z,1003.05
2018-12-07T01:10:09.512Z,1003.10
2018-12-07T01:11:09.499Z,1003.15
2018-12-07T01:12:09.554Z,1003.15
2018-12-07T01:13:09.478Z,1003.14
2018-12-07T01:14:09.467Z,1003.15
2018-12-07T01:15:09.455Z,1003.10
2018-12-07T01:16:09.444Z,1003.08
2018-12-07T01:17:09.434Z,1003.08
2018-12-07T01:18:09.439Z,1003.07
2018-12-07T01:19:09.410Z,1003.06
2018-12-07T01:20:09.445Z,1003.02
2018-12-07T01:21:09.389Z,1002.97
2018-12-07T01:22:09.380Z,1002.95
2018-12-07T01:23:09.400Z,1002.98
2018-12-07T01:24:09.353Z,1002.97
2018-12-07T01:25:09.346Z,1003.01
2018-12-07T01:26:09.331Z,1003.00
2018-12-07T01:27:09.323Z,1003.03
2018-12-07T01:28:09.310Z,1003.03
2018-12-07T01:29:09.341Z,1003.01
2018-12-07T01:30:09.286Z,1003.00
2018-12-07T01:31:09.277Z,1002.96
2018-12-07T01:32:09.267Z,1003.01
2018-12-07T01:33:09.265Z,1002.95
2018-12-07T01:34:09.247Z,1002.95
2018-12-07T01:35:09.230Z,1002.89
2018-12-07T01:36:09.219Z,1002.87
2018-12-07T01:37:09.227Z,1002.83
2018-12-07T01:38:09.233Z,1002.82
2018-12-07T01:39:09.186Z,1002.78
2018-12-07T01:40:09.174Z,1002.83
2018-12-07T01:41:09.162Z,1002.82
2018-12-07T01:42:09.153Z,1002.83
2018-12-07T01:43:09.141Z,1002.77
2018-12-07T01:44:09.156Z,1002.76
2018-12-07T01:45:09.144Z,1002.78
2018-12-07T01:46:09.119Z,1002.75
2018-12-07T01:47:09.121Z,1002.72
2018-12-07T01:48:09.085Z,1002.74
2018-12-07T01:49:09.106Z,1002.69
2018-12-07T01:50:09.064Z,1002.73
2018-12-07T01:51:09.058Z,1002.72
2018-12-07T01:52:09.038Z,1002.71
2018-12-07T01:53:09.028Z,1002.70
2018-12-07T01:54:09.029Z,1002.70
2018-12-07T01:55:09.040Z,1002.67
2018-12-07T01:56:08.993Z,1002.69
2018-12-07T01:57:08.984Z,1002.66
2018-12-07T01:58:08.973Z,1002.58
2018-12-07T01:59:08.962Z,1002.59
2018-12-07T02:00:08.949Z,1002.55
2018-12-07T02:01:08.950Z,1002.48
2018-12-07T02:02:08.927Z,1002.47
2018-12-07T02:03:08.931Z,1002.47
2018-12-07T02:04:08.933Z,1002.48
2018-12-07T02:05:08.919Z,1002.47
2018-12-07T02:06:08.923Z,1002.38
2018-12-07T02:07:08.879Z,1002.40
2018-12-07T02:08:08.888Z,1002.42
2018-12-07T02:09:08.880Z,1002.47
2018-12-07T02:10:08.864Z,1002.46
2018-12-07T02:11:08.858Z,1002.45
2018-12-07T02:12:08.844Z,1002.43
2018-12-07T02:13:08.813Z,1002.40
2018-12-07T02:14:08.799Z,1002.37
2018-12-07T02:15:08.780Z,1002.29
2018-12-07T02:16:08.778Z,1002.30
2018-12-07T02:17:08.762Z,1002.32
2018-12-07T02:18:08.848Z,1002.27
2018-12-07T02:19:08.741Z,1002.31
2018-12-07T02:20:08.736Z,1002.24
2018-12-07T02:21:08.719Z,1002.25
2018-12-07T02:22:08.709Z,1002.22
2018-12-07T02:23:08.700Z,1002.24
2018-12-07T02:24:08.734Z,1002.19
2018-12-07T02:25:08.688Z,1002.24
2018-12-07T02:26:08.663Z,1002.22
2018-12-07T02:27:08.645Z,1002.16
2018-12-07T02:28:08.691Z,1002.13
2018-12-07T02:29:08.629Z,1002.08
2018-12-07T02:30:08.682Z,1002.07
2018-12-07T02:31:08.601Z,1002.08
2018-12-07T02:32:08.610Z,1002.07
2018-12-07T02:33:08.578Z,1002.14
2018-12-07T02:34:08.567Z,1002.02
2018-12-07T02:35:08.556Z,1002.04
2018-12-07T02:36:08.578Z,1001.98
2018-12-07T02:37:08.532Z,1002.02
2018-12-07T02:38:08.553Z,1002.00
2018-12-07T02:39:08.512Z,1001.99
2018-12-07T02:40:08.498Z,1001.98
2018-12-07T02:41:08.487Z,1001.93
2018-12-07T02:42:08.495Z,1001.96
2018-12-07T02:43:08.469Z,1001.98
2018-12-07T02:44:08.459Z,1001.96
2018-12-07T02:45:08.442Z,1001.96
2018-12-07T02:46:08.434Z,1001.91
2018-12-07T02:47:08.463Z,1001.91
2018-12-07T02:48:08.406Z,1001.87
2018-12-07T02:49:08.404Z,1001.87
2018-12-07T02:50:08.384Z,1001.88
2018-12-07T02:51:08.373Z,1001.87
2018-12-07T02:52:08.361Z,1001.86
2018-12-07T02:53:08.388Z,1001.83
2018-12-07T02:54:08.342Z,1001.83
2018-12-07T02:55:08.331Z,1001.81
2018-12-07T02:56:08.345Z,1001.79
2018-12-07T02:57:08.308Z,1001.83
2018-12-07T02:58:08.296Z,1001.85
2018-12-07T02:59:08.299Z,1001.79
2018-12-07T03:00:08.288Z,1001.76
2018-12-07T03:01:08.292Z,1001.77
2018-12-07T03:02:08.265Z,1001.72
2018-12-07T03:03:08.238Z,1001.75
2018-12-07T03:04:08.226Z,1001.73
2018-12-07T03:05:08.233Z,1001.72
2018-12-07T03:06:08.210Z,1001.75
2018-12-07T03:07:08.193Z,1001.77
2018-12-07T03:08:08.185Z,1001.74
2018-12-07T03:09:08.193Z,1001.73
2018-12-07T03:10:08.164Z,1001.77
2018-12-07T03:11:08.150Z,1001.73
2018-12-07T03:12:08.139Z,1001.76
2018-12-07T03:13:08.156Z,1001.78
2018-12-07T03:14:08.116Z,1001.74
2018-12-07T03:15:08.129Z,1001.73
2018-12-07T03:16:08.132Z,1001.70
2018-12-07T03:17:08.089Z,1001.71
2018-12-07T03:18:08.074Z,1001.69
2018-12-07T03:19:08.061Z,1001.67
2018-12-07T03:20:08.063Z,1001.67
2018-12-07T03:21:08.047Z,1001.58
2018-12-07T03:22:08.054Z,1001.57
2018-12-07T03:23:08.017Z,1001.62
2018-12-07T03:24:08.012Z,1001.59
2018-12-07T03:25:07.996Z,1001.58
2018-12-07T03:26:07.983Z,1001.58
2018-12-07T03:27:08.031Z,1001.60
2018-12-07T03:28:07.957Z,1001.61
2018-12-07T03:29:07.948Z,1001.59
2018-12-07T03:30:07.989Z,1001.62
2018-12-07T03:31:07.975Z,1001.61
2018-12-07T03:32:07.923Z,1001.60
2018-12-07T03:33:07.914Z,1001.58
2018-12-07T03:34:07.927Z,1001.60
2018-12-07T03:35:07.879Z,1001.60
2018-12-07T03:36:07.868Z,1001.58
2018-12-07T03:37:07.861Z,1001.55
2018-12-07T03:38:07.867Z,1001.50
2018-12-07T03:39:07.837Z,1001.46
2018-12-07T03:40:07.846Z,1001.48
2018-12-07T03:41:07.812Z,1001.51
2018-12-07T03:42:07.801Z,1001.50
2018-12-07T03:43:07.792Z,1001.43
2018-12-07T03:44:07.776Z,1001.50
2018-12-07T03:45:07.773Z,1001.47
2018-12-07T03:46:07.792Z,1001.48
2018-12-07T03:47:07.748Z,1001.45
2018-12-07T03:48:07.735Z,1001.44
2018-12-07T03:49:07.721Z,1001.42
2018-12-07T03:50:07.712Z,1001.39
2018-12-07T03:51:07.737Z,1001.35
2018-12-07T03:52:07.688Z,1001.36
2018-12-07T03:53:07.679Z,1001.37
2018-12-07T03:54:07.667Z,1001.36
2018-12-07T03:55:07.656Z,1001.31
2018-12-07T03:56:07.686Z,1001.34
2018-12-07T03:57:07.666Z,1001.33
2018-12-07T03:58:07.620Z,1001.31
2018-12-07T03:59:07.611Z,1001.32
2018-12-07T04:00:07.600Z,1001.32
2018-12-07T04:01:07.590Z,1001.29
2018-12-07T04:02:07.575Z,1001.33
2018-12-07T04:03:07.604Z,1001.26
2018-12-07T04:04:07.553Z,1001.34
2018-12-07T04:05:07.542Z,1001.30
2018-12-07T04:06:07.552Z,1001.32
2018-12-07T04:07:07.521Z,1001.32
2018-12-07T04:08:07.536Z,1001.31
2018-12-07T04:09:07.502Z,1001.31
2018-12-07T04:10:07.486Z,1001.30
2018-12-07T04:11:07.474Z,1001.29
2018-12-07T04:12:07.480Z,1001.27
2018-12-07T04:13:07.457Z,1001.28
2018-12-07T04:14:07.484Z,1001.28
2018-12-07T04:15:07.432Z,1001.25
2018-12-07T04:16:07.419Z,1001.27
2018-12-07T04:17:07.406Z,1001.24
2018-12-07T04:18:07.395Z,1001.25
2018-12-07T04:19:07.437Z,1001.25
2018-12-07T04:20:07.413Z,1001.25
2018-12-07T04:21:07.365Z,1001.23
2018-12-07T04:22:07.351Z,1001.22
2018-12-07T04:23:07.343Z,1001.22
2018-12-07T04:24:07.332Z,1001.24
2018-12-07T04:25:07.361Z,1001.25
2018-12-07T04:26:07.337Z,1001.25
2018-12-07T04:27:07.294Z,1001.27
2018-12-07T04:28:07.282Z,1001.32
2018-12-07T04:29:07.273Z,1001.35
2018-12-07T04:30:07.261Z,1001.33
2018-12-07T04:31:07.283Z,1001.32
2018-12-07T04:32:07.240Z,1001.28
2018-12-07T04:33:07.248Z,1001.27
2018-12-07T04:34:07.217Z,1001.24
2018-12-07T04:35:07.205Z,1001.25
2018-12-07T04:36:07.821Z,1001.25
2018-12-07T04:37:07.220Z,1001.24
2018-12-07T04:38:07.172Z,1001.26
2018-12-07T04:39:07.191Z,1001.22
2018-12-07T04:40:07.150Z,1001.19
2018-12-07T04:41:07.138Z,1001.16
2018-12-07T04:42:07.125Z,1001.14
2018-12-07T04:43:07.142Z,1001.18
2018-12-07T04:44:07.106Z,1001.13
2018-12-07T04:45:07.103Z,1001.16
2018-12-07T04:46:07.094Z,1001.16
2018-12-07T04:47:07.074Z,1001.17
2018-12-07T04:48:07.057Z,1001.13
2018-12-07T04:49:07.062Z,1001.14
2018-12-07T04:50:07.042Z,1001.13
2018-12-07T04:51:07.049Z,1001.15
2018-12-07T04:52:07.030Z,1001.07
2018-12-07T04:53:07.027Z,1001.08
2018-12-07T04:54:06.992Z,1001.17
2018-12-07T04:55:06.985Z,1001.07
2018-12-07T04:56:06.979Z,1001.04
2018-12-07T04:57:07.093Z,1001.00
2018-12-07T04:58:06.960Z,1001.01
2018-12-07T04:59:06.950Z,1000.94
2018-12-07T05:00:06.925Z,1001.00
2018-12-07T05:01:06.913Z,1001.04
2018-12-07T05:02:06.903Z,1001.01
2018-12-07T05:03:06.939Z,1000.99
2018-12-07T05:04:06.905Z,1000.97
2018-12-07T05:05:06.868Z,1000.98
2018-12-07T05:06:06.857Z,1000.95
2018-12-07T05:07:06.845Z,1001.01
2018-12-07T05:08:06.839Z,1000.99
2018-12-07T05:09:06.839Z,1000.98
2018-12-07T05:10:06.830Z,1001.00
2018-12-07T05:11:06.803Z,1001.00
2018-12-07T05:12:06.793Z,1000.99
2018-12-07T05:13:06.776Z,1001.02
2018-12-07T05:14:06.804Z,1000.96
2018-12-07T05:15:06.755Z,1000.99
2018-12-07T05:16:06.748Z,1000.96
2018-12-07T05:17:06.735Z,1000.96
2018-12-07T05:18:06.736Z,1000.93
2018-12-07T05:19:06.712Z,1001.02
2018-12-07T05:20:06.712Z,1000.97
2018-12-07T05:21:06.699Z,1001.00
2018-12-07T05:22:06.677Z,1000.99
2018-12-07T05:23:06.667Z,1000.97
2018-12-07T05:24:06.668Z,1000.95
2018-12-07T05:25:06.705Z,1000.94
2018-12-07T05:26:06.637Z,1000.95
2018-12-07T05:27:06.643Z,1000.92
2018-12-07T05:28:06.619Z,1000.90
2018-12-07T05:29:06.605Z,1000.89
2018-12-07T05:30:06.611Z,1000.92
2018-12-07T05:31:06.590Z,1000.88
2018-12-07T05:32:06.579Z,1000.87
2018-12-07T05:33:06.579Z,1000.89
2018-12-07T05:34:06.581Z,1000.84
2018-12-07T05:35:06.563Z,1000.84
2018-12-07T05:36:06.524Z,1000.85
2018-12-07T05:37:06.510Z,1000.89
2018-12-07T05:38:06.514Z,1000.85
2018-12-07T05:39:06.487Z,1000.78
2018-12-07T05:40:06.489Z,1000.80
2018-12-07T05:41:06.515Z,1000.81
2018-12-07T05:42:06.459Z,1000.82
2018-12-07T05:43:06.444Z,1000.82
2018-12-07T05:44:06.437Z,1000.82
2018-12-07T05:45:06.419Z,1000.86
2018-12-07T05:46:06.448Z,1000.82
2018-12-07T05:47:06.431Z,1000.83
2018-12-07T05:48:06.385Z,1000.82
2018-12-07T05:49:06.378Z,1000.81
2018-12-07T05:50:06.365Z,1000.78
2018-12-07T05:51:06.353Z,1000.78
2018-12-07T05:52:06.345Z,1000.77
2018-12-07T05:53:06.349Z,1000.75
2018-12-07T05:54:06.324Z,1000.76
2018-12-07T05:55:06.313Z,1000.72
2018-12-07T05:56:06.295Z,1000.76
2018-12-07T05:57:06.287Z,1000.75
2018-12-07T05:58:06.305Z,1000.72
2018-12-07T05:59:06.263Z,1000.71
2018-12-07T06:00:06.258Z,1000.72
2018-12-07T06:01:06.242Z,1000.71
2018-12-07T06:02:06.228Z,1000.73
2018-12-07T06:03:06.217Z,1000.70
2018-12-07T06:04:06.225Z,1000.68
2018-12-07T06:05:06.201Z,1000.73
2018-12-07T06:06:06.206Z,1000.65
2018-12-07T06:07:06.173Z,1000.66
2018-12-07T06:08:06.160Z,1000.68
2018-12-07T06:09:06.151Z,1000.69
2018-12-07T06:10:06.138Z,1000.69
2018-12-07T06:11:06.129Z,1000.68
2018-12-07T06:12:06.136Z,1000.68
2018-12-07T06:13:06.107Z,1000.64
2018-12-07T06:14:06.092Z,1000.66
2018-12-07T06:15:06.096Z,1000.62
2018-12-07T06:16:06.071Z,1000.62
2018-12-07T06:17:06.060Z,1000.59
2018-12-07T06:18:06.052Z,1000.53
2018-12-07T06:19:06.042Z,1000.61
2018-12-07T06:20:06.042Z,1000.60
2018-12-07T06:21:06.015Z,1000.53
2018-12-07T06:22:06.002Z,1000.52
2018-12-07T06:23:05.993Z,1000.55
2018-12-07T06:24:05.987Z,1000.58
2018-12-07T06:25:05.984Z,1000.57
2018-12-07T06:26:05.993Z,1000.55
2018-12-07T06:27:05.948Z,1000.59
2018-12-07T06:28:05.937Z,1000.57
2018-12-07T06:29:05.930Z,1000.58
2018-12-07T06:30:05.929Z,1000.54
2018-12-07T06:31:05.905Z,1000.49
2018-12-07T06:32:05.925Z,1000.47
2018-12-07T06:33:05.902Z,1000.46
2018-12-07T06:34:05.913Z,1000.42
2018-12-07T06:35:05.863Z,1000.43
2018-12-07T06:36:05.852Z,1000.40
2018-12-07T06:37:05.837Z,1000.44
2018-12-07T06:38:05.867Z,1000.34
2018-12-07T06:39:05.815Z,1000.31
2018-12-07T06:40:05.828Z,1000.32
2018-12-07T06:41:05.791Z,1000.27
2018-12-07T06:42:05.783Z,1000.22
2018-12-07T06:43:05.768Z,1000.29
2018-12-07T06:44:05.771Z,1000.23
2018-12-07T06:45:05.788Z,1000.22
2018-12-07T06:46:05.741Z,1000.20
2018-12-07T06:47:05.731Z,1000.17
2018-12-07T06:48:05.716Z,1000.21
2018-12-07T06:49:05.702Z,1000.19
2018-12-07T06:50:05.701Z,1000.18
2018-12-07T06:51:05.706Z,1000.16
2018-12-07T06:52:05.667Z,1000.19
2018-12-07T06:53:05.671Z,1000.17
2018-12-07T06:54:05.668Z,1000.23
2018-12-07T06:55:05.636Z,1000.20
2018-12-07T06:56:05.640Z,1000.15
2018-12-07T06:57:05.625Z,1000.17
2018-12-07T06:58:05.626Z,1000.19
2018-12-07T06:59:05.590Z,1000.14
2018-12-07T07:00:05.579Z,1000.16
2018-12-07T07:01:05.593Z,1000.15
2018-12-07T07:02:05.559Z,1000.16
2018-12-07T07:03:05.571Z,1000.12
2018-12-07T07:04:05.542Z,1000.15
2018-12-07T07:05:05.525Z,1000.18
2018-12-07T07:06:05.514Z,1000.15
2018-12-07T07:07:05.534Z,1000.13
2018-12-07T07:08:05.493Z,1000.17
2018-12-07T07:09:05.476Z,1000.13
2018-12-07T07:10:05.495Z,1000.10
2018-12-07T07:11:05.456Z,1000.09
2018-12-07T07:12:05.445Z,1000.07
2018-12-07T07:13:05.469Z,1000.05
2018-12-07T07:14:05.424Z,1000.07
2018-12-07T07:15:05.414Z,999.99
2018-12-07T07:16:05.403Z,1000.00
2018-12-07T07:17:05.401Z,1000.02
2018-12-07T07:18:05.380Z,999.98
2018-12-07T07:19:05.386Z,1000.07
2018-12-07T07:20:05.357Z,999.98
2018-12-07T07:21:05.343Z,1000.05
2018-12-07T07:22:05.337Z,1000.01
2018-12-07T07:23:05.323Z,1000.00
2018-12-07T07:24:05.361Z,999.97
2018-12-07T07:25:05.303Z,999.97
2018-12-07T07:26:05.316Z,999.92
2018-12-07T07:27:05.288Z,999.98
2018-12-07T07:28:05.268Z,999.98
2018-12-07T07:29:05.257Z,999.99
2018-12-07T07:30:05.320Z,999.96
2018-12-07T07:31:05.234Z,999.96
2018-12-07T07:32:05.227Z,999.93
2018-12-07T07:33:05.210Z,999.95
2018-12-07T07:34:05.209Z,999.94
2018-12-07T07:35:05.196Z,999.93
2018-12-07T07:36:05.223Z,999.96
2018-12-07T07:37:05.173Z,999.96
2018-12-07T07:38:05.166Z,999.93
2018-12-07T07:39:05.204Z,999.91
2018-12-07T07:40:05.146Z,999.91
2018-12-07T07:41:05.124Z,999.93
2018-12-07T07:42:05.147Z,999.89
2018-12-07T07:43:05.113Z,999.90
2018-12-07T07:44:05.089Z,999.86
2018-12-07T07:45:05.076Z,999.82
2018-12-07T07:46:05.091Z,999.81
2018-12-07T07:47:05.058Z,999.82
2018-12-07T07:48:05.060Z,999.76
2018-12-07T07:49:05.032Z,999.74
2018-12-07T07:50:05.021Z,999.67
2018-12-07T07:51:05.025Z,999.69
2018-12-07T07:52:05.011Z,999.70
2018-12-07T07:53:05.032Z,999.68
2018-12-07T07:54:04.974Z,999.62
2018-12-07T07:55:04.965Z,999.67
2018-12-07T07:56:05.071Z,999.62
2018-12-07T07:57:04.945Z,999.62
2018-12-07T07:58:04.932Z,999.63
2018-12-07T07:59:04.924Z,999.63
2018-12-07T08:00:04.923Z,999.61
2018-12-07T08:01:04.897Z,999.58
2018-12-07T08:02:04.902Z,999.62
2018-12-07T08:03:04.878Z,999.57
2018-12-07T08:04:04.867Z,999.52
2018-12-07T08:05:04.854Z,999.53
2018-12-07T08:06:04.873Z,999.52
2018-12-07T08:07:04.834Z,999.46
2018-12-07T08:08:04.829Z,999.47
2018-12-07T08:09:04.809Z,999.50
2018-12-07T08:10:04.798Z,999.46
2018-12-07T08:11:04.825Z,999.47
2018-12-07T08:12:04.798Z,999.50
2018-12-07T08:13:04.781Z,999.48
2018-12-07T08:14:04.770Z,999.47
2018-12-07T08:15:04.742Z,999.47
2018-12-07T08:16:04.742Z,999.41
2018-12-07T08:17:04.759Z,999.41
2018-12-07T08:18:04.710Z,999.38
2018-12-07T08:19:04.697Z,999.37
2018-12-07T08:20:04.687Z,999.32
2018-12-07T08:21:04.673Z,999.32
2018-12-07T08:22:04.679Z,999.26
2018-12-07T08:23:04.690Z,999.29
2018-12-07T08:24:04.644Z,999.29
2018-12-07T08:25:04.632Z,999.26
2018-12-07T08:26:04.619Z,999.25
2018-12-07T08:27:04.607Z,999.20
2018-12-07T08:28:04.626Z,999.18
2018-12-07T08:29:04.614Z,999.17
2018-12-07T08:30:04.579Z,999.19
2018-12-07T08:31:04.564Z,999.18
2018-12-07T08:32:04.553Z,999.19
2018-12-07T08:33:04.544Z,999.14
2018-12-07T08:34:04.545Z,999.17
2018-12-07T08:35:04.532Z,999.17
2018-12-07T08:36:04.519Z,999.17
2018-12-07T08:37:04.514Z,999.13
2018-12-07T08:38:04.490Z,999.18
2018-12-07T08:39:04.487Z,999.16
2018-12-07T08:40:04.497Z,999.16
2018-12-07T08:41:04.523Z,999.15
2018-12-07T08:42:06.847Z,999.11
2018-12-07T08:43:04.435Z,999.10
2018-12-07T08:44:04.458Z,999.08
2018-12-07T08:45:04.411Z,999.06
2018-12-07T08:46:04.400Z,999.07
2018-12-07T08:47:04.410Z,999.03
2018-12-07T08:48:04.385Z,999.09
2018-12-07T08:49:04.368Z,999.01
2018-12-07T08:50:04.354Z,999.05
2018-12-07T08:51:04.356Z,999.06
2018-12-07T08:52:04.327Z,999.06
2018-12-07T08:53:04.366Z,999.06
2018-12-07T08:54:04.315Z,999.04
2018-12-07T08:55:04.325Z,999.00
2018-12-07T08:56:04.285Z,999.05
2018-12-07T08:57:04.281Z,998.92
2018-12-07T08:58:04.296Z,998.97
2018-12-07T08:59:04.276Z,998.98
2018-12-07T09:00:04.241Z,998.98
2018-12-07T09:01:04.227Z,998.94
2018-12-07T09:02:04.221Z,998.88
2018-12-07T09:03:04.208Z,998.88
2018-12-07T09:04:04.227Z,998.87
2018-12-07T09:05:04.202Z,998.87
2018-12-07T09:06:04.182Z,998.85
2018-12-07T09:07:04.186Z,998.83
2018-12-07T09:08:04.150Z,998.88
2018-12-07T09:09:04.191Z,998.85
2018-12-07T09:10:04.134Z,998.84
2018-12-07T09:11:04.119Z,998.79
2018-12-07T09:12:04.124Z,998.80
2018-12-07T09:13:04.096Z,998.83
2018-12-07T09:14:04.085Z,998.73
2018-12-07T09:15:04.088Z,998.74
2018-12-07T09:16:04.095Z,998.71
2018-12-07T09:17:04.056Z,998.71
2018-12-07T09:18:04.064Z,998.71
2018-12-07T09:19:04.035Z,998.72
2018-12-07T09:20:04.025Z,998.64
2018-12-07T09:21:04.005Z,998.66
2018-12-07T09:22:04.021Z,998.62
2018-12-07T09:23:03.988Z,998.63
2018-12-07T09:24:04.011Z,998.57
2018-12-07T09:25:04.001Z,998.55
2018-12-07T09:26:03.953Z,998.55
2018-12-07T09:27:03.949Z,998.51
2018-12-07T09:28:03.943Z,998.51
2018-12-07T09:29:03.917Z,998.47
2018-12-07T09:30:03.940Z,998.46
2018-12-07T09:31:03.896Z,998.40
2018-12-07T09:32:03.887Z,998.43
2018-12-07T09:33:03.905Z,998.42
2018-12-07T09:34:03.887Z,998.38
2018-12-07T09:35:03.866Z,998.43
2018-12-07T09:36:03.853Z,998.41
2018-12-07T09:37:03.850Z,998.37
2018-12-07T09:38:03.819Z,998.38
2018-12-07T09:39:03.842Z,998.39
2018-12-07T09:40:03.809Z,998.30
2018-12-07T09:41:03.782Z,998.37
2018-12-07T09:42:03.779Z,998.29
2018-12-07T09:43:03.762Z,998.27
2018-12-07T09:44:03.773Z,998.28
2018-12-07T09:45:03.767Z,998.22
2018-12-07T09:46:03.770Z,998.23
2018-12-07T09:47:03.718Z,998.23
2018-12-07T09:48:03.740Z,998.22
2018-12-07T09:49:03.699Z,998.18
2018-12-07T09:50:03.698Z,998.16
2018-12-07T09:51:03.720Z,998.18
2018-12-07T09:52:03.663Z,998.17
2018-12-07T09:53:03.651Z,998.10
2018-12-07T09:54:03.641Z,998.10
2018-12-07T09:55:03.632Z,998.07
2018-12-07T09:56:03.617Z,998.07
2018-12-07T09:57:03.648Z,998.06
2018-12-07T09:58:03.599Z,998.03
2018-12-07T09:59:03.590Z,998.02
2018-12-07T10:00:03.577Z,997.99
2018-12-07T10:01:03.560Z,997.96
2018-12-07T10:02:03.559Z,998.01
2018-12-07T10:03:03.558Z,997.99
2018-12-07T10:04:03.533Z,997.87
2018-12-07T10:05:03.524Z,997.91
2018-12-07T10:06:03.505Z,997.86
2018-12-07T10:07:03.498Z,997.90
2018-12-07T10:08:03.555Z,997.86
2018-12-07T10:09:03.502Z,997.87
2018-12-07T10:10:03.482Z,997.83
2018-12-07T10:11:03.474Z,997.76
2018-12-07T10:12:03.440Z,997.73
2018-12-07T10:13:08.004Z,997.77
2018-12-07T10:14:03.438Z,997.74
2018-12-07T10:15:03.405Z,997.69
2018-12-07T10:16:03.398Z,997.66
2018-12-07T10:17:03.407Z,997.64
2018-12-07T10:18:03.534Z,997.66
2018-12-07T10:19:03.361Z,997.63
2018-12-07T10:20:03.352Z,997.54
2018-12-07T10:21:03.340Z,997.57
2018-12-07T10:22:03.331Z,997.55
2018-12-07T10:23:03.317Z,997.54
2018-12-07T10:24:03.341Z,997.57
2018-12-07T10:25:03.329Z,997.52
2018-12-07T10:26:03.293Z,997.51
2018-12-07T10:27:03.303Z,997.52
2018-12-07T10:28:03.300Z,997.49
2018-12-07T10:29:03.251Z,997.37
2018-12-07T10:30:03.251Z,997.45
2018-12-07T10:31:03.272Z,997.42
2018-12-07T10:32:03.217Z,997.40
2018-12-07T10:33:03.206Z,997.43
2018-12-07T10:34:03.194Z,997.35
2018-12-07T10:35:03.187Z,997.37
2018-12-07T10:36:03.266Z,997.36
2018-12-07T10:37:03.171Z,997.36
2018-12-07T10:38:03.151Z,997.27
2018-12-07T10:39:03.164Z,997.31
2018-12-07T10:40:03.158Z,997.32
2018-12-07T10:41:03.138Z,997.30
2018-12-07T10:42:03.125Z,997.27
2018-12-07T10:43:03.123Z,997.26
2018-12-07T10:44:03.089Z,997.25
2018-12-07T10:45:03.090Z,997.16
2018-12-07T10:46:03.086Z,997.18
2018-12-07T10:47:03.116Z,997.18
2018-12-07T10:48:03.038Z,997.13
2018-12-07T10:49:03.032Z,997.13
2018-12-07T10:50:03.033Z,997.13
2018-12-07T10:51:08.003Z,997.06
2018-12-07T10:52:04.017Z,997.11
2018-12-07T10:53:03.004Z,997.04
2018-12-07T10:54:03.006Z,997.03
2018-12-07T10:55:02.988Z,997.02
2018-12-07T10:56:02.971Z,996.96
2018-12-07T10:57:02.949Z,996.96
2018-12-07T10:58:02.968Z,996.89
2018-12-07T10:59:02.974Z,996.83
2018-12-07T11:00:02.908Z,996.87
2018-12-07T11:01:02.893Z,996.79
2018-12-07T11:02:02.950Z,996.76
2018-12-07T11:03:02.877Z,996.79
2018-12-07T11:04:02.902Z,996.81
2018-12-07T11:05:02.858Z,996.75
2018-12-07T11:06:02.841Z,996.71
2018-12-07T11:07:02.839Z,996.71
2018-12-07T11:08:02.846Z,996.68
2018-12-07T11:09:02.814Z,996.64
2018-12-07T11:10:02.802Z,996.55
2018-12-07T11:11:02.782Z,996.59
2018-12-07T11:12:02.789Z,996.61
2018-12-07T11:13:02.779Z,996.60
2018-12-07T11:14:02.761Z,996.56
2018-12-07T11:15:02.745Z,996.53
2018-12-07T11:16:02.727Z,996.53
2018-12-07T11:17:02.724Z,996.51
2018-12-07T11:18:02.739Z,996.48
2018-12-07T11:19:02.695Z,996.47
2018-12-07T11:20:02.682Z,996.43
2018-12-07T11:21:02.712Z,996.40
2018-12-07T11:22:02.665Z,996.35
2018-12-07T11:23:02.653Z,996.28
2018-12-07T11:24:02.676Z,996.27
2018-12-07T11:25:02.627Z,996.29
2018-12-07T11:26:02.621Z,996.27
2018-12-07T11:27:02.604Z,996.19
2018-12-07T11:28:02.613Z,996.18
2018-12-07T11:29:02.608Z,996.25
2018-12-07T11:30:02.587Z,996.14
2018-12-07T11:31:02.561Z,996.18
2018-12-07T11:32:02.556Z,996.17
2018-12-07T11:33:02.554Z,996.16
2018-12-07T11:34:02.530Z,996.17
2018-12-07T11:35:02.563Z,996.17
2018-12-07T11:36:08.122Z,996.09
2018-12-07T11:37:03.496Z,996.10
2018-12-07T11:38:02.482Z,996.07
2018-12-07T11:39:02.472Z,996.00
2018-12-07T11:40:02.464Z,996.00
2018-12-07T11:41:02.487Z,995.93
2018-12-07T11:42:02.480Z,995.97
2018-12-07T11:43:02.430Z,995.97
2018-12-07T11:44:02.415Z,995.92
2018-12-07T11:45:02.405Z,995.93
2018-12-07T11:46:02.397Z,995.90
2018-12-07T11:47:02.388Z,995.83
2018-12-07T11:48:02.449Z,995.85
2018-12-07T11:49:02.363Z,995.80
2018-12-07T11:50:02.354Z,995.75
2018-12-07T11:51:02.337Z,995.77
2018-12-07T11:52:02.362Z,995.73
2018-12-07T11:53:02.317Z,995.68
2018-12-07T11:54:02.307Z,995.66
2018-12-07T11:55:02.297Z,995.64
2018-12-07T11:56:02.290Z,995.66
2018-12-07T11:57:02.308Z,995.60
2018-12-07T11:58:02.305Z,995.58
2018-12-07T11:59:02.252Z,995.56
2018-12-07T12:00:02.250Z,995.52
2018-12-07T12:01:02.235Z,995.44
2018-12-07T12:02:02.225Z,995.42
2018-12-07T12:03:02.208Z,995.43
2018-12-07T12:04:02.209Z,995.40
2018-12-07T12:05:02.209Z,995.35
2018-12-07T12:06:02.239Z,995.29
2018-12-07T12:07:02.171Z,995.28
2018-12-07T12:08:02.162Z,995.24
2018-12-07T12:09:02.142Z,995.18
2018-12-07T12:10:02.125Z,995.13
2018-12-07T12:11:02.160Z,995.14
2018-12-07T12:12:02.173Z,995.12
2018-12-07T12:13:02.112Z,995.10
2018-12-07T12:14:02.101Z,995.09